Time;durP1;ratioP1;P1;durP2;ratioP2;P2;SDS_P1;SDS_P2;PMS_P1;PMS_P2;Temp;Humidity;BMP_temperature;BMP_pressure;BME280_temperature;BME280_humidity;BME280_pressure;Samples;Min_cycle;Max_cycle;Signal;HPM_P1;HPM_P2
2022/08/05 00:01:30;;;;;;;;;;;29.20;82.90;;;;;;5053276;28;19940;-62
2022/08/05 00:04:15;;;;;;;;;;;29.00;83.90;;;;;;5051062;28;19934;-64
2022/08/05 00:06:43;;;;;;;;;;;28.80;84.50;;;;;;5048774;28;20423;-62
2022/08/05 00:09:13;;;;;;;;;;;28.80;85.00;;;;;;5043117;28;19928;-63
2022/08/05 00:11:41;;;;;;;;;;;28.80;84.90;;;;;;5047494;28;19936;-63
2022/08/05 00:14:16;;;;;;;;;;;28.80;84.50;;;;;;5057904;28;19931;-64
2022/08/05 00:16:43;;;;;;;;;;;28.90;84.40;;;;;;5045483;28;19928;-61
2022/08/05 00:19:20;;;;;;;;;;;29.00;84.30;;;;;;5050312;28;19931;-64
2022/08/05 00:21:48;;;;;;;;;;;29.10;84.10;;;;;;5050834;28;20384;-64
2022/08/05 00:24:15;;;;;;;;;;;29.10;84.30;;;;;;5058269;28;19936;-62
2022/08/05 00:26:51;;;;;;;;;;;29.10;84.30;;;;;;5058305;28;19932;-63
2022/08/05 00:29:19;;;;;;;;;;;29.10;84.10;;;;;;5057193;28;20412;-64
2022/08/05 00:31:48;;;;;;;;;;;29.20;84.20;;;;;;5053216;28;19943;-63
2022/08/05 00:34:36;;;;;;;;;;;29.20;84.00;;;;;;5047755;28;19936;-63
2022/08/05 00:37:23;;;;;;;;;;;29.20;84.10;;;;;;5046283;28;19929;-64
2022/08/05 00:39:50;;;;;;;;;;;29.20;84.20;;;;;;5044743;28;19947;-63
2022/08/05 00:42:32;;;;;;;;;;;29.20;84.20;;;;;;5054653;28;19936;-64
2022/08/05 00:45:00;;;;;;;;;;;29.20;84.30;;;;;;5057746;28;20340;-64
2022/08/05 00:47:27;;;;;;;;;;;29.20;84.00;;;;;;5059169;28;21250;-64
2022/08/05 00:50:14;;;;;;;;;;;29.20;84.10;;;;;;5046581;28;20423;-63
2022/08/05 00:52:41;;;;;;;;;;;29.20;84.30;;;;;;5047232;28;19937;-64
2022/08/05 00:55:12;;;;;;;;;;;29.20;84.20;;;;;;5047246;28;19940;-64
2022/08/05 00:57:41;;;;;;;;;;;29.20;84.40;;;;;;5044623;28;19928;-62
2022/08/05 01:00:26;;;;;;;;;;;29.20;84.40;;;;;;5042733;28;19925;-61
2022/08/05 01:02:54;;;;;;;;;;;29.20;84.40;;;;;;5052949;28;19928;-62
2022/08/05 01:05:22;;;;;;;;;;;29.20;84.20;;;;;;5055069;28;19935;-64
2022/08/05 01:07:51;;;;;;;;;;;29.20;84.40;;;;;;5049113;28;19932;-64
2022/08/05 01:10:59;;;;;;;;;;;29.20;84.30;;;;;;5049873;28;19936;-64
2022/08/05 01:13:40;;;;;;;;;;;29.20;84.40;;;;;;5046126;28;20400;-64
2022/08/05 01:16:29;;;;;;;;;;;29.20;84.20;;;;;;5045489;28;19944;-64
2022/08/05 01:19:10;;;;;;;;;;;29.20;84.30;;;;;;5050278;28;20003;-62
2022/08/05 01:21:43;;;;;;;;;;;29.30;84.40;;;;;;5044268;28;20336;-61
2022/08/05 01:24:35;;;;;;;;;;;29.20;84.40;;;;;;5051549;28;19929;-64
2022/08/05 01:27:22;;;;;;;;;;;29.20;84.40;;;;;;5058270;28;19940;-64
2022/08/05 01:29:53;;;;;;;;;;;29.20;84.40;;;;;;5063148;28;19928;-64
2022/08/05 01:32:22;;;;;;;;;;;29.20;84.50;;;;;;5059824;28;20541;-64
2022/08/05 01:34:55;;;;;;;;;;;29.20;84.60;;;;;;5050361;28;20435;-64
2022/08/05 01:37:27;;;;;;;;;;;29.20;85.20;;;;;;5050245;28;20439;-63
2022/08/05 01:39:55;;;;;;;;;;;29.20;84.60;;;;;;5050462;28;19931;-64
2022/08/05 01:42:26;;;;;;;;;;;29.20;84.70;;;;;;5043947;28;20321;-63
2022/08/05 01:44:55;;;;;;;;;;;29.20;84.70;;;;;;5052508;28;19929;-61
2022/08/05 01:47:25;;;;;;;;;;;29.20;84.90;;;;;;5049231;28;19938;-63
2022/08/05 01:50:08;;;;;;;;;;;29.20;84.80;;;;;;5049067;28;19936;-65
2022/08/05 01:52:43;;;;;;;;;;;29.20;85.10;;;;;;5054408;28;19935;-64
2022/08/05 01:55:14;;;;;;;;;;;29.20;85.10;;;;;;5046218;28;20426;-64
2022/08/05 01:57:43;;;;;;;;;;;29.20;85.00;;;;;;5052036;28;19932;-64
2022/08/05 02:00:32;;;;;;;;;;;29.20;85.20;;;;;;5044387;28;19943;-63
2022/08/05 02:03:19;;;;;;;;;;;29.20;85.20;;;;;;5052282;28;19940;-62
2022/08/05 02:05:59;;;;;;;;;;;29.20;85.30;;;;;;5044950;28;19928;-64
2022/08/05 02:08:29;;;;;;;;;;;29.20;85.20;;;;;;5045056;28;20003;-66
2022/08/05 02:11:11;;;;;;;;;;;29.20;85.40;;;;;;5041004;28;19959;-62
2022/08/05 02:13:41;;;;;;;;;;;29.20;85.30;;;;;;5044493;28;20156;-62
2022/08/05 02:16:24;;;;;;;;;;;29.20;85.40;;;;;;5034386;28;20375;-61
2022/08/05 02:19:01;;;;;;;;;;;29.20;85.50;;;;;;5046528;28;19928;-61
2022/08/05 02:21:35;;;;;;;;;;;29.20;85.60;;;;;;5044574;28;19929;-64
2022/08/05 02:24:15;;;;;;;;;;;29.20;85.60;;;;;;5055023;28;20327;-62
2022/08/05 02:26:46;;;;;;;;;;;29.20;85.60;;;;;;5050081;28;19928;-62
2022/08/05 02:29:22;;;;;;;;;;;29.20;85.80;;;;;;5048264;28;19932;-63
2022/08/05 02:32:11;;;;;;;;;;;29.20;85.80;;;;;;5043872;28;19925;-67
2022/08/05 02:34:51;;;;;;;;;;;29.20;85.90;;;;;;5039199;28;19936;-64
2022/08/05 02:37:21;;;;;;;;;;;29.20;85.90;;;;;;5052541;28;19933;-62
2022/08/05 02:39:49;;;;;;;;;;;29.20;85.90;;;;;;5048954;28;19929;-63
2022/08/05 02:42:19;;;;;;;;;;;29.20;85.90;;;;;;5041598;28;19928;-62
2022/08/05 02:44:52;;;;;;;;;;;29.20;86.10;;;;;;5037767;28;20290;-64
2022/08/05 02:47:20;;;;;;;;;;;29.20;86.00;;;;;;5047283;28;19925;-64
2022/08/05 02:49:48;;;;;;;;;;;29.20;86.00;;;;;;5052803;28;19933;-62
2022/08/05 02:52:19;;;;;;;;;;;29.10;86.00;;;;;;5047901;28;19929;-63
2022/08/05 02:54:58;;;;;;;;;;;29.20;86.10;;;;;;5050635;28;19929;-62
2022/08/05 02:57:32;;;;;;;;;;;29.20;86.20;;;;;;5057675;28;19928;-64
2022/08/05 03:00:19;;;;;;;;;;;29.20;86.00;;;;;;5047574;28;19962;-63
2022/08/05 03:02:47;;;;;;;;;;;29.20;86.00;;;;;;5048335;28;19929;-64
2022/08/05 03:05:15;;;;;;;;;;;29.20;86.10;;;;;;5050783;28;20435;-63
2022/08/05 03:07:43;;;;;;;;;;;29.20;86.40;;;;;;5055154;28;19932;-64
2022/08/05 03:10:30;;;;;;;;;;;29.20;86.40;;;;;;5046033;28;19933;-64
2022/08/05 03:12:57;;;;;;;;;;;29.10;86.40;;;;;;5050251;28;19935;-63
2022/08/05 03:15:26;;;;;;;;;;;29.20;86.40;;;;;;5047271;28;19935;-65
2022/08/05 03:17:54;;;;;;;;;;;29.10;86.40;;;;;;5053683;28;19928;-64
2022/08/05 03:20:23;;;;;;;;;;;29.20;86.60;;;;;;5047811;28;19933;-63
2022/08/05 03:22:52;;;;;;;;;;;29.10;86.50;;;;;;5044359;28;19929;-64
2022/08/05 03:25:24;;;;;;;;;;;29.10;86.60;;;;;;5045683;28;20305;-63
2022/08/05 03:28:11;;;;;;;;;;;29.10;86.60;;;;;;5050137;28;19928;-64
2022/08/05 03:30:41;;;;;;;;;;;29.10;86.70;;;;;;5045977;28;19929;-63
2022/08/05 03:33:08;;;;;;;;;;;29.10;86.80;;;;;;5048137;28;19936;-64
2022/08/05 03:35:36;;;;;;;;;;;29.10;86.80;;;;;;5052062;28;19928;-65
2022/08/05 03:38:10;;;;;;;;;;;29.10;86.90;;;;;;5066277;28;19929;-64
2022/08/05 03:40:41;;;;;;;;;;;29.10;87.00;;;;;;5054097;28;19929;-64
2022/08/05 03:43:13;;;;;;;;;;;29.10;86.80;;;;;;5053580;28;19929;-64
2022/08/05 03:46:01;;;;;;;;;;;29.10;87.10;;;;;;5046559;28;19929;-64
2022/08/05 03:48:28;;;;;;;;;;;29.10;86.60;;;;;;5057100;28;20335;-63
2022/08/05 03:51:02;;;;;;;;;;;29.20;86.60;;;;;;5055200;28;19936;-64
2022/08/05 03:54:21;;;;;;;;;;;29.20;87.00;;;;;;5047099;28;19929;-63
2022/08/05 03:57:09;;;;;;;;;;;29.20;87.50;;;;;;5028413;28;19929;-63
2022/08/05 03:59:45;;;;;;;;;;;29.20;87.70;;;;;;5050796;28;20379;-64
2022/08/05 04:02:25;;;;;;;;;;;29.10;87.90;;;;;;5053648;28;20395;-63
2022/08/05 04:05:11;;;;;;;;;;;29.10;88.60;;;;;;5057791;28;19953;-62
2022/08/05 04:07:39;;;;;;;;;;;28.80;90.10;;;;;;5055944;28;19928;-62
2022/08/05 04:10:25;;;;;;;;;;;28.70;90.60;;;;;;5044745;28;19929;-65
2022/08/05 04:12:55;;;;;;;;;;;28.50;90.60;;;;;;5048994;28;19930;-63
2022/08/05 04:15:27;;;;;;;;;;;28.40;90.70;;;;;;5053713;28;19933;-63
2022/08/05 04:18:00;;;;;;;;;;;28.40;90.90;;;;;;5060676;28;19928;-64
2022/08/05 04:20:27;;;;;;;;;;;28.40;90.70;;;;;;5055202;28;19933;-63
2022/08/05 04:22:54;;;;;;;;;;;28.40;90.70;;;;;;5057349;28;19935;-63
2022/08/05 04:25:23;;;;;;;;;;;28.40;90.40;;;;;;5049551;28;19940;-63
2022/08/05 04:28:10;;;;;;;;;;;28.40;90.40;;;;;;5055236;28;19935;-62
2022/08/05 04:30:39;;;;;;;;;;;28.30;90.80;;;;;;5044904;28;19929;-63
2022/08/05 04:33:08;;;;;;;;;;;28.20;90.90;;;;;;5051928;28;19953;-62
2022/08/05 04:35:36;;;;;;;;;;;28.20;91.10;;;;;;5043332;28;20407;-63
2022/08/05 04:38:23;;;;;;;;;;;28.20;91.00;;;;;;5045554;28;19933;-62
2022/08/05 04:41:06;;;;;;;;;;;28.10;91.30;;;;;;5048933;28;19929;-63
2022/08/05 04:43:39;;;;;;;;;;;28.00;91.50;;;;;;5042133;28;20311;-63
2022/08/05 04:46:19;;;;;;;;;;;28.00;91.50;;;;;;5054921;28;19932;-62
2022/08/05 04:48:54;;;;;;;;;;;28.00;91.70;;;;;;5049816;28;20396;-63
2022/08/05 04:51:24;;;;;;;;;;;28.00;91.60;;;;;;5050912;28;19929;-63
2022/08/05 04:53:56;;;;;;;;;;;28.10;91.60;;;;;;5048343;28;19935;-62
2022/08/05 04:56:27;;;;;;;;;;;28.00;91.50;;;;;;5050548;28;19936;-63
2022/08/05 04:59:03;;;;;;;;;;;28.00;91.60;;;;;;5051381;28;19933;-62
2022/08/05 05:01:51;;;;;;;;;;;28.10;91.60;;;;;;5053657;28;19925;-63
2022/08/05 05:04:38;;;;;;;;;;;28.10;91.50;;;;;;5046235;28;19936;-63
2022/08/05 05:07:10;;;;;;;;;;;28.10;91.70;;;;;;5043312;28;19936;-61
2022/08/05 05:09:42;;;;;;;;;;;27.90;91.60;;;;;;5056194;28;19933;-63
2022/08/05 05:12:10;;;;;;;;;;;27.90;91.70;;;;;;5039995;28;20297;-61
2022/08/05 05:14:37;;;;;;;;;;;27.70;91.90;;;;;;5041781;28;19929;-63
2022/08/05 05:17:16;;;;;;;;;;;27.70;92.10;;;;;;5049268;28;19929;-62
2022/08/05 05:19:51;;;;;;;;;;;27.60;92.50;;;;;;5037290;28;19933;-59
2022/08/05 05:22:19;;;;;;;;;;;27.70;92.10;;;;;;5055155;28;19928;-62
2022/08/05 05:24:52;;;;;;;;;;;27.60;92.00;;;;;;5051558;28;19936;-63
2022/08/05 05:27:24;;;;;;;;;;;27.50;92.20;;;;;;5041612;28;19939;-63
2022/08/05 05:30:15;;;;;;;;;;;27.30;92.40;;;;;;5041043;28;19925;-61
2022/08/05 05:32:58;;;;;;;;;;;27.30;92.50;;;;;;5040787;28;19962;-62
2022/08/05 05:35:29;;;;;;;;;;;27.30;92.90;;;;;;5041045;28;19939;-63
2022/08/05 05:38:05;;;;;;;;;;;27.40;93.00;;;;;;5035511;28;19933;-63
2022/08/05 05:40:40;;;;;;;;;;;27.60;92.80;;;;;;5052019;28;20296;-62
2022/08/05 05:43:16;;;;;;;;;;;27.70;92.50;;;;;;5047135;28;19935;-62
2022/08/05 05:46:03;;;;;;;;;;;27.80;92.30;;;;;;5051751;28;19933;-62
2022/08/05 05:48:33;;;;;;;;;;;27.80;92.10;;;;;;5065364;28;19929;-62
2022/08/05 05:51:00;;;;;;;;;;;27.80;92.10;;;;;;5050814;28;19948;-61
2022/08/05 05:53:42;;;;;;;;;;;27.90;91.90;;;;;;5055338;28;20319;-62
2022/08/05 05:56:28;;;;;;;;;;;27.90;91.80;;;;;;5053273;28;19928;-63
2022/08/05 05:59:04;;;;;;;;;;;28.00;91.80;;;;;;5045991;28;19932;-62
2022/08/05 06:01:34;;;;;;;;;;;28.00;91.60;;;;;;5055246;28;19929;-63
2022/08/05 06:04:08;;;;;;;;;;;27.90;91.50;;;;;;5047845;28;20158;-63
2022/08/05 06:06:39;;;;;;;;;;;27.80;91.60;;;;;;5042517;28;20517;-63
2022/08/05 06:09:08;;;;;;;;;;;27.80;91.80;;;;;;5050954;28;19936;-62
2022/08/05 06:11:44;;;;;;;;;;;27.80;91.70;;;;;;5045345;28;19972;-63
2022/08/05 06:14:29;;;;;;;;;;;27.90;91.60;;;;;;5057759;28;19937;-62
2022/08/05 06:16:57;;;;;;;;;;;27.90;91.50;;;;;;5056165;28;20250;-62
2022/08/05 06:19:25;;;;;;;;;;;27.90;91.30;;;;;;5060007;28;19929;-63
2022/08/05 06:22:02;;;;;;;;;;;28.00;91.40;;;;;;5049986;28;19928;-63
2022/08/05 06:24:30;;;;;;;;;;;28.00;91.40;;;;;;5054599;28;19928;-62
2022/08/05 06:26:57;;;;;;;;;;;28.00;91.40;;;;;;5056761;28;19928;-62
2022/08/05 06:29:24;;;;;;;;;;;28.10;91.10;;;;;;5066438;28;19932;-62
2022/08/05 06:32:11;;;;;;;;;;;28.10;91.10;;;;;;5056615;28;19929;-62
2022/08/05 06:34:53;;;;;;;;;;;28.10;91.10;;;;;;5053000;28;19976;-62
2022/08/05 06:37:26;;;;;;;;;;;28.10;91.10;;;;;;5054138;28;19928;-61
2022/08/05 06:40:14;;;;;;;;;;;28.10;91.10;;;;;;5055814;28;19929;-60
2022/08/05 06:42:50;;;;;;;;;;;28.00;91.40;;;;;;5057378;28;19924;-62
2022/08/05 06:45:19;;;;;;;;;;;27.90;91.50;;;;;;5050356;28;19935;-63
2022/08/05 06:47:47;;;;;;;;;;;27.80;91.50;;;;;;5053268;28;20377;-63
2022/08/05 06:50:34;;;;;;;;;;;27.90;91.40;;;;;;5041470;28;20449;-62
2022/08/05 06:53:01;;;;;;;;;;;28.00;91.20;;;;;;5040691;28;20384;-61
2022/08/05 06:55:45;;;;;;;;;;;27.90;91.20;;;;;;5046798;28;20329;-61
2022/08/05 06:58:12;;;;;;;;;;;27.90;91.40;;;;;;5047858;28;19938;-63
2022/08/05 07:01:00;;;;;;;;;;;27.90;91.50;;;;;;5043500;28;19935;-60
2022/08/05 07:03:29;;;;;;;;;;;27.90;91.50;;;;;;5044000;28;20336;-59
2022/08/05 07:05:58;;;;;;;;;;;27.90;91.70;;;;;;5042885;28;19929;-61
2022/08/05 07:08:27;;;;;;;;;;;27.80;92.10;;;;;;5046532;28;19925;-60
2022/08/05 07:10:55;;;;;;;;;;;27.80;92.60;;;;;;5044515;28;19929;-62
2022/08/05 07:19:32;;;;;;;;;;;27.90;93.40;;;;;;5051327;28;19925;-63
2022/08/05 07:22:21;;;;;;;;;;;28.00;93.60;;;;;;5040257;28;19932;-66
2022/08/05 07:24:56;;;;;;;;;;;28.00;93.50;;;;;;5043283;28;19933;-65
2022/08/05 07:27:23;;;;;;;;;;;28.00;93.90;;;;;;5040854;28;19933;-63
2022/08/05 07:29:55;;;;;;;;;;;28.00;94.00;;;;;;5047933;28;19929;-64
2022/08/05 07:32:43;;;;;;;;;;;28.00;93.90;;;;;;5045335;28;19929;-65
2022/08/05 07:35:17;;;;;;;;;;;28.10;93.70;;;;;;5046462;28;19925;-64
2022/08/05 07:38:04;;;;;;;;;;;28.10;93.50;;;;;;5054228;28;19935;-60
2022/08/05 07:40:38;;;;;;;;;;;28.10;93.60;;;;;;5051329;28;20361;-63
2022/08/05 07:43:12;;;;;;;;;;;28.10;93.40;;;;;;5057477;28;19946;-64
2022/08/05 07:45:47;;;;;;;;;;;28.10;93.40;;;;;;5053602;28;20316;-60
2022/08/05 07:48:25;;;;;;;;;;;28.10;93.00;;;;;;5051710;28;19932;-63
2022/08/05 07:51:14;;;;;;;;;;;28.10;93.20;;;;;;5052687;28;19935;-61
2022/08/05 07:54:01;;;;;;;;;;;28.10;93.10;;;;;;5052293;28;20042;-59
2022/08/05 07:56:29;;;;;;;;;;;28.10;93.40;;;;;;5049232;28;19935;-57
2022/08/05 07:59:16;;;;;;;;;;;28.10;93.30;;;;;;5052790;28;19928;-63
2022/08/05 08:01:49;;;;;;;;;;;28.20;93.10;;;;;;5041665;28;19980;-63
2022/08/05 08:04:23;;;;;;;;;;;28.30;93.50;;;;;;5042442;28;19935;-62
2022/08/05 08:07:04;;;;;;;;;;;28.40;94.00;;;;;;5038195;28;19925;-65
2022/08/05 08:09:33;;;;;;;;;;;28.50;94.20;;;;;;5039091;28;19941;-63
2022/08/05 08:12:01;;;;;;;;;;;28.50;94.30;;;;;;5051136;28;19929;-62
2022/08/05 08:14:43;;;;;;;;;;;28.60;94.30;;;;;;5045000;28;19929;-65
2022/08/05 08:17:13;;;;;;;;;;;28.60;94.50;;;;;;5043547;28;20413;-63
2022/08/05 08:19:47;;;;;;;;;;;28.60;95.20;;;;;;5054654;28;19935;-65
2022/08/05 08:22:35;;;;;;;;;;;28.60;94.70;;;;;;5048475;28;20000;-62
2022/08/05 08:25:02;;;;;;;;;;;28.40;91.80;;;;;;5047180;28;20386;-63
2022/08/05 08:27:43;;;;;;;;;;;28.20;90.90;;;;;;5047823;28;20506;-63
2022/08/05 08:30:14;;;;;;;;;;;27.90;90.80;;;;;;5040728;28;20452;-61
2022/08/05 08:33:06;;;;;;;;;;;27.90;90.70;;;;;;5050995;28;20502;-65
2022/08/05 08:35:35;;;;;;;;;;;27.70;90.70;;;;;;5050496;28;19935;-59
2022/08/05 08:38:07;;;;;;;;;;;27.70;90.70;;;;;;5047831;28;19929;-63
2022/08/05 08:40:42;;;;;;;;;;;27.70;90.40;;;;;;5043850;28;20201;-64
2022/08/05 08:43:18;;;;;;;;;;;27.80;89.90;;;;;;5046924;28;20657;-61
2022/08/05 08:46:05;;;;;;;;;;;27.70;88.50;;;;;;5049398;28;19929;-62
2022/08/05 08:48:38;;;;;;;;;;;27.60;88.00;;;;;;5051751;28;19928;-62
2022/08/05 08:51:26;;;;;;;;;;;27.60;87.30;;;;;;5047680;28;19932;-63
2022/08/05 08:54:14;;;;;;;;;;;27.70;87.40;;;;;;5049907;28;19937;-64
2022/08/05 08:56:41;;;;;;;;;;;27.70;87.00;;;;;;5048177;28;19924;-64
2022/08/05 08:59:17;;;;;;;;;;;27.70;86.70;;;;;;5046644;28;19932;-61
2022/08/05 09:01:47;;;;;;;;;;;27.50;86.70;;;;;;5041588;28;19929;-65
2022/08/05 09:04:23;;;;;;;;;;;27.60;87.10;;;;;;5046270;28;20427;-66
2022/08/05 09:06:57;;;;;;;;;;;27.70;87.00;;;;;;5043454;28;20027;-65
2022/08/05 09:09:24;;;;;;;;;;;27.80;86.90;;;;;;5045542;28;21055;-65
2022/08/05 09:12:06;;;;;;;;;;;27.80;86.60;;;;;;5040281;28;19929;-64
2022/08/05 09:14:53;;;;;;;;;;;27.90;86.60;;;;;;5056390;28;19929;-63
2022/08/05 09:17:32;;;;;;;;;;;28.00;86.60;;;;;;5054585;28;19936;-64
2022/08/05 09:20:08;;;;;;;;;;;28.00;86.50;;;;;;5051226;28;20314;-65
2022/08/05 09:22:53;;;;;;;;;;;28.00;86.60;;;;;;5041410;28;19929;-65
2022/08/05 09:25:32;;;;;;;;;;;28.00;86.90;;;;;;5047089;28;20323;-65
2022/08/05 09:28:22;;;;;;;;;;;28.10;86.90;;;;;;5051461;28;19933;-66
2022/08/05 09:30:56;;;;;;;;;;;28.10;87.00;;;;;;5047024;28;19924;-65
2022/08/05 09:33:24;;;;;;;;;;;28.10;87.20;;;;;;5055927;28;19928;-65
2022/08/05 09:36:02;;;;;;;;;;;28.00;87.40;;;;;;5067255;28;19929;-64
2022/08/05 09:38:37;;;;;;;;;;;28.10;87.30;;;;;;5053924;28;19928;-65
2022/08/05 09:41:07;;;;;;;;;;;28.10;87.00;;;;;;5050705;28;19932;-62
2022/08/05 09:43:35;;;;;;;;;;;28.10;87.00;;;;;;5049778;28;19928;-66
2022/08/05 09:46:22;;;;;;;;;;;28.10;86.90;;;;;;5045403;28;19935;-67
2022/08/05 09:48:55;;;;;;;;;;;28.10;87.40;;;;;;5047958;28;19936;-66
2022/08/05 09:51:36;;;;;;;;;;;28.10;87.10;;;;;;5044098;28;19929;-67
2022/08/05 09:54:07;;;;;;;;;;;28.20;87.10;;;;;;5048620;28;19948;-66
2022/08/05 09:56:36;;;;;;;;;;;28.20;87.00;;;;;;5050250;28;19933;-66
2022/08/05 09:59:07;;;;;;;;;;;28.20;87.10;;;;;;5048356;28;19929;-66
2022/08/05 10:01:41;;;;;;;;;;;28.20;87.10;;;;;;5049812;28;19928;-69
2022/08/05 10:04:13;;;;;;;;;;;28.20;87.20;;;;;;5052988;28;19948;-67
2022/08/05 10:07:01;;;;;;;;;;;28.20;86.80;;;;;;5057398;28;20308;-66
2022/08/05 10:10:04;;;;;;;;;;;28.20;86.70;;;;;;5050858;28;19937;-60
2022/08/05 10:12:46;;;;;;;;;;;28.20;86.60;;;;;;5047747;28;20399;-62
2022/08/05 10:15:19;;;;;;;;;;;28.20;87.10;;;;;;5051964;28;20277;-66
2022/08/05 10:18:06;;;;;;;;;;;28.20;87.10;;;;;;5047070;28;19933;-64
2022/08/05 10:20:36;;;;;;;;;;;28.20;87.00;;;;;;5046702;28;19932;-63
2022/08/05 10:23:03;;;;;;;;;;;28.30;87.40;;;;;;5045411;28;19928;-65
2022/08/05 10:25:35;;;;;;;;;;;28.20;87.10;;;;;;5054527;28;19924;-61
2022/08/05 10:28:02;;;;;;;;;;;28.20;87.00;;;;;;5051274;28;19936;-66
2022/08/05 10:30:43;;;;;;;;;;;28.20;87.00;;;;;;5042742;28;19935;-66
2022/08/05 10:33:31;;;;;;;;;;;28.20;87.40;;;;;;5049797;28;19932;-66
2022/08/05 10:36:04;;;;;;;;;;;28.30;87.70;;;;;;5050062;28;19928;-61
2022/08/05 10:38:32;;;;;;;;;;;28.30;87.60;;;;;;5051461;28;19943;-62
2022/08/05 10:41:15;;;;;;;;;;;28.30;88.50;;;;;;5052444;28;19928;-64
2022/08/05 10:43:52;;;;;;;;;;;28.30;88.60;;;;;;5043995;28;19940;-66
2022/08/05 10:46:21;;;;;;;;;;;28.30;88.30;;;;;;5046828;28;19939;-63
2022/08/05 10:48:59;;;;;;;;;;;28.30;88.50;;;;;;5046762;28;19928;-65
2022/08/05 10:51:41;;;;;;;;;;;28.30;89.00;;;;;;5048398;28;21111;-63
2022/08/05 10:54:44;;;;;;;;;;;28.30;88.40;;;;;;5061110;28;20417;-65
2022/08/05 10:57:26;;;;;;;;;;;28.30;88.20;;;;;;5064374;28;19983;-65
2022/08/05 11:00:08;;;;;;;;;;;28.30;88.40;;;;;;5048540;28;20284;-64
2022/08/05 11:03:04;;;;;;;;;;;28.30;88.50;;;;;;5041446;28;19929;-62
2022/08/05 11:06:05;;;;;;;;;;;28.30;89.20;;;;;;5053902;28;20407;-64
2022/08/05 11:09:00;;;;;;;;;;;28.30;89.40;;;;;;5042538;28;20462;-65
2022/08/05 11:11:32;;;;;;;;;;;28.30;89.70;;;;;;5047064;28;20293;-64
2022/08/05 11:14:11;;;;;;;;;;;28.20;88.30;;;;;;5043982;28;19925;-62
2022/08/05 11:16:38;;;;;;;;;;;27.90;88.40;;;;;;5044950;28;19996;-63
2022/08/05 11:19:28;;;;;;;;;;;27.80;88.70;;;;;;5049018;28;19929;-63
2022/08/05 11:22:34;;;;;;;;;;;27.80;89.10;;;;;;5048461;28;19929;-64
2022/08/05 11:25:20;;;;;;;;;;;27.80;89.30;;;;;;5050267;28;19933;-64
2022/08/05 11:28:13;;;;;;;;;;;27.70;89.80;;;;;;5046662;28;19944;-66
2022/08/05 11:30:55;;;;;;;;;;;27.80;89.30;;;;;;5043340;28;19928;-66
2022/08/05 11:33:24;;;;;;;;;;;27.90;88.90;;;;;;5047278;28;19924;-64
2022/08/05 11:36:10;;;;;;;;;;;27.90;89.70;;;;;;5047701;28;19929;-66
2022/08/05 11:38:37;;;;;;;;;;;27.90;89.50;;;;;;5048162;28;19933;-65
2022/08/05 11:41:15;;;;;;;;;;;27.80;89.80;;;;;;5046030;28;19929;-62
2022/08/05 11:44:02;;;;;;;;;;;27.60;90.10;;;;;;5051649;28;19933;-65
2022/08/05 11:46:47;;;;;;;;;;;27.70;90.20;;;;;;5048670;28;19929;-66
2022/08/05 11:49:34;;;;;;;;;;;27.90;90.10;;;;;;5048785;28;19954;-65
2022/08/05 11:52:02;;;;;;;;;;;27.90;90.00;;;;;;5048317;28;20288;-67
2022/08/05 11:54:38;;;;;;;;;;;27.90;89.70;;;;;;5046906;28;20339;-68
2022/08/05 11:57:07;;;;;;;;;;;27.90;89.70;;;;;;5045075;28;20477;-66
2022/08/05 11:59:52;;;;;;;;;;;27.90;90.00;;;;;;5053729;28;19936;-65
2022/08/05 12:02:26;;;;;;;;;;;28.00;90.40;;;;;;5047092;28;19933;-65
2022/08/05 12:04:59;;;;;;;;;;;28.00;90.10;;;;;;5046341;28;19940;-67
2022/08/05 12:07:32;;;;;;;;;;;28.00;90.20;;;;;;5045618;28;22158;-69
2022/08/05 12:10:21;;;;;;;;;;;28.00;90.00;;;;;;5063806;28;19936;-67
2022/08/05 12:12:51;;;;;;;;;;;27.90;90.40;;;;;;5066174;28;19951;-68
2022/08/05 12:15:26;;;;;;;;;;;28.00;90.20;;;;;;5046814;28;20277;-65
2022/08/05 12:18:04;;;;;;;;;;;28.10;90.30;;;;;;5048696;28;19928;-65
2022/08/05 12:20:38;;;;;;;;;;;28.10;90.50;;;;;;5045518;28;20403;-69
2022/08/05 12:23:09;;;;;;;;;;;28.10;90.50;;;;;;5063300;28;20431;-67
2022/08/05 12:25:52;;;;;;;;;;;28.10;90.50;;;;;;5049079;28;19936;-68
2022/08/05 12:28:36;;;;;;;;;;;28.10;90.30;;;;;;5051527;28;20355;-68
2022/08/05 12:31:04;;;;;;;;;;;28.10;90.20;;;;;;5049005;28;20424;-67
2022/08/05 12:33:32;;;;;;;;;;;28.10;90.20;;;;;;5059839;28;19935;-66
2022/08/05 12:36:05;;;;;;;;;;;28.10;90.30;;;;;;5040078;28;19933;-67
2022/08/05 12:38:38;;;;;;;;;;;28.00;90.30;;;;;;5042153;28;19939;-68
2022/08/05 12:41:11;;;;;;;;;;;28.10;90.20;;;;;;5041111;28;19935;-67
2022/08/05 12:43:53;;;;;;;;;;;28.10;90.30;;;;;;5044303;28;19929;-67
2022/08/05 12:46:21;;;;;;;;;;;28.10;90.20;;;;;;5047208;28;19928;-67
2022/08/05 12:48:59;;;;;;;;;;;28.10;90.20;;;;;;5045135;28;19936;-66
2022/08/05 12:51:27;;;;;;;;;;;28.10;90.10;;;;;;5036730;28;19925;-67
2022/08/05 12:54:24;;;;;;;;;;;28.10;90.00;;;;;;5039950;28;19929;-67
2022/08/05 12:56:56;;;;;;;;;;;28.20;90.00;;;;;;5042588;28;20327;-67
2022/08/05 12:59:25;;;;;;;;;;;28.20;89.80;;;;;;5049883;28;20257;-66
2022/08/05 13:02:15;;;;;;;;;;;28.20;89.70;;;;;;5057597;28;20316;-66
2022/08/05 13:04:43;;;;;;;;;;;28.20;89.50;;;;;;5038706;28;20304;-65
2022/08/05 13:07:21;;;;;;;;;;;28.20;89.30;;;;;;5041994;28;19940;-66
2022/08/05 13:10:09;;;;;;;;;;;28.20;89.20;;;;;;5049120;28;20490;-66
2022/08/05 13:12:43;;;;;;;;;;;28.20;88.80;;;;;;5044223;28;19928;-64
2022/08/05 13:15:32;;;;;;;;;;;28.20;88.80;;;;;;5042260;28;20067;-66
2022/08/05 13:18:19;;;;;;;;;;;28.20;88.70;;;;;;5044770;28;19935;-65
2022/08/05 13:20:47;;;;;;;;;;;28.20;88.70;;;;;;5047725;28;19931;-66
2022/08/05 13:23:15;;;;;;;;;;;28.20;88.70;;;;;;5054471;28;19943;-66
2022/08/05 13:25:50;;;;;;;;;;;28.20;88.60;;;;;;5050485;28;20575;-66
2022/08/05 13:28:27;;;;;;;;;;;28.20;88.80;;;;;;5054144;28;19933;-66
2022/08/05 13:30:54;;;;;;;;;;;28.20;89.20;;;;;;5048780;28;19929;-64
2022/08/05 13:33:23;;;;;;;;;;;28.20;89.00;;;;;;5051485;28;19929;-66
2022/08/05 13:36:12;;;;;;;;;;;28.20;89.20;;;;;;5047830;28;19929;-66
2022/08/05 13:38:40;;;;;;;;;;;28.20;89.50;;;;;;5058070;28;19928;-65
2022/08/05 13:41:09;;;;;;;;;;;28.20;89.20;;;;;;5051370;28;20339;-65
2022/08/05 13:43:37;;;;;;;;;;;28.20;89.40;;;;;;5050869;28;19935;-66
2022/08/05 13:46:21;;;;;;;;;;;28.20;89.70;;;;;;5034841;28;19932;-66
2022/08/05 13:49:08;;;;;;;;;;;28.20;89.90;;;;;;5048922;28;19929;-65
2022/08/05 13:51:38;;;;;;;;;;;28.20;90.00;;;;;;5043932;28;19929;-66
2022/08/05 13:54:08;;;;;;;;;;;28.20;90.10;;;;;;5043646;28;20300;-66
2022/08/05 13:56:39;;;;;;;;;;;28.20;90.10;;;;;;5042310;28;19939;-65
2022/08/05 13:59:21;;;;;;;;;;;28.30;90.20;;;;;;5038307;28;19925;-66
2022/08/05 14:01:54;;;;;;;;;;;28.30;90.30;;;;;;5048195;28;19935;-65
2022/08/05 14:07:15;;;;;;;;;;;28.30;90.40;;;;;;5054005;28;20035;-66
2022/08/05 14:10:03;;;;;;;;;;;28.40;90.70;;;;;;5046640;28;19979;-66
2022/08/05 14:12:34;;;;;;;;;;;28.50;90.30;;;;;;5037961;28;19928;-65
2022/08/05 14:15:02;;;;;;;;;;;28.50;90.40;;;;;;5048870;28;19936;-66
2022/08/05 14:17:50;;;;;;;;;;;28.40;90.30;;;;;;5042161;28;19924;-66
2022/08/05 14:20:21;;;;;;;;;;;28.40;90.20;;;;;;5049549;28;20307;-66
2022/08/05 14:22:53;;;;;;;;;;;28.40;90.10;;;;;;5050664;28;20273;-66
2022/08/05 14:25:22;;;;;;;;;;;28.40;90.10;;;;;;5044750;28;19935;-66
2022/08/05 14:27:54;;;;;;;;;;;28.40;90.10;;;;;;5055776;28;19936;-66
2022/08/05 14:30:23;;;;;;;;;;;28.40;90.10;;;;;;5053655;28;20356;-66
2022/08/05 14:32:52;;;;;;;;;;;28.30;90.00;;;;;;5059880;28;19930;-66
2022/08/05 14:35:19;;;;;;;;;;;28.30;90.00;;;;;;5051816;28;19928;-64
2022/08/05 14:37:49;;;;;;;;;;;28.30;90.00;;;;;;5060553;28;19952;-66
2022/08/05 14:40:21;;;;;;;;;;;28.30;90.00;;;;;;5054099;28;19936;-66
2022/08/05 14:42:50;;;;;;;;;;;28.30;89.90;;;;;;5052526;28;20407;-65
2022/08/05 14:45:18;;;;;;;;;;;28.20;89.70;;;;;;5047846;28;19935;-66
2022/08/05 14:47:45;;;;;;;;;;;28.30;89.30;;;;;;5051872;28;19991;-66
2022/08/05 14:50:32;;;;;;;;;;;28.20;89.40;;;;;;5057921;28;19928;-66
2022/08/05 14:53:05;;;;;;;;;;;28.20;89.40;;;;;;5047729;28;19936;-65
2022/08/05 14:55:33;;;;;;;;;;;28.20;89.20;;;;;;5055482;28;19929;-66
2022/08/05 14:58:07;;;;;;;;;;;28.20;89.00;;;;;;5043067;28;20312;-65
2022/08/05 15:00:38;;;;;;;;;;;28.30;88.90;;;;;;5057211;28;20375;-65
2022/08/05 15:03:29;;;;;;;;;;;28.30;89.00;;;;;;5054180;28;19947;-66
2022/08/05 15:06:05;;;;;;;;;;;28.30;88.70;;;;;;5050687;28;19940;-65
2022/08/05 15:08:40;;;;;;;;;;;28.20;88.70;;;;;;5048401;28;20649;-66
2022/08/05 15:11:27;;;;;;;;;;;28.10;88.50;;;;;;5040579;28;19929;-65
2022/08/05 15:14:14;;;;;;;;;;;28.20;88.90;;;;;;5054197;28;19929;-66
2022/08/05 15:17:00;;;;;;;;;;;28.20;88.40;;;;;;5043560;28;19936;-66